sensor_id;sensor_type;location;lat;lon;timestamp;temperature;humidity
7934;DHT22;4012;48.896;9.192;2023-02-05T00:00:15;3.80;99.90
7934;DHT22;4012;48.896;9.192;2023-02-05T00:02:41;3.80;99.90
7934;DHT22;4012;48.896;9.192;2023-02-05T00:05:07;3.70;99.90
7934;DHT22;4012;48.896;9.192;2023-02-05T00:07:32;3.80;99.90
7934;DHT22;4012;48.896;9.192;2023-02-05T00:09:58;3.80;99.90
7934;DHT22;4012;48.896;9.192;2023-02-05T00:12:24;3.80;99.90
7934;DHT22;4012;48.896;9.192;2023-02-05T00:14:49;3.90;99.90
7934;DHT22;4012;48.896;9.192;2023-02-05T00:17:15;3.80;99.90
7934;DHT22;4012;48.896;9.192;2023-02-05T00:19:40;3.90;99.90
7934;DHT22;4012;48.896;9.192;2023-02-05T00:22:06;3.90;99.90
7934;DHT22;4012;48.896;9.192;2023-02-05T00:24:32;3.90;99.90
7934;DHT22;4012;48.896;9.192;2023-02-05T00:26:57;3.90;99.90
7934;DHT22;4012;48.896;9.192;2023-02-05T00:29:23;3.90;99.90
7934;DHT22;4012;48.896;9.192;2023-02-05T00:31:49;3.90;99.90
7934;DHT22;4012;48.896;9.192;2023-02-05T00:34:15;3.90;99.90
7934;DHT22;4012;48.896;9.192;2023-02-05T00:36:41;3.70;99.90
7934;DHT22;4012;48.896;9.192;2023-02-05T00:39:06;3.70;99.90
7934;DHT22;4012;48.896;9.192;2023-02-05T00:41:33;3.60;99.90
7934;DHT22;4012;48.896;9.192;2023-02-05T00:43:59;3.60;99.90
7934;DHT22;4012;48.896;9.192;2023-02-05T00:46:25;3.50;99.90
7934;DHT22;4012;48.896;9.192;2023-02-05T00:48:50;3.50;99.90
7934;DHT22;4012;48.896;9.192;2023-02-05T00:51:16;3.50;99.90
7934;DHT22;4012;48.896;9.192;2023-02-05T00:53:41;3.50;99.90
7934;DHT22;4012;48.896;9.192;2023-02-05T00:56:07;3.50;99.90
7934;DHT22;4012;48.896;9.192;2023-02-05T00:58:33;3.50;99.90
7934;DHT22;4012;48.896;9.192;2023-02-05T01:00:59;3.60;99.90
7934;DHT22;4012;48.896;9.192;2023-02-05T01:03:24;3.70;99.90
7934;DHT22;4012;48.896;9.192;2023-02-05T01:05:50;3.70;99.90
7934;DHT22;4012;48.896;9.192;2023-02-05T01:08:15;3.70;99.90
7934;DHT22;4012;48.896;9.192;2023-02-05T01:10:46;3.60;99.90
7934;DHT22;4012;48.896;9.192;2023-02-05T01:13:12;3.50;99.90
7934;DHT22;4012;48.896;9.192;2023-02-05T01:15:38;3.50;99.90
7934;DHT22;4012;48.896;9.192;2023-02-05T01:18:04;3.50;99.90
7934;DHT22;4012;48.896;9.192;2023-02-05T01:20:30;3.70;99.90
7934;DHT22;4012;48.896;9.192;2023-02-05T01:22:55;3.80;99.90
7934;DHT22;4012;48.896;9.192;2023-02-05T01:25:21;3.80;99.90
7934;DHT22;4012;48.896;9.192;2023-02-05T01:27:47;3.90;99.90
7934;DHT22;4012;48.896;9.192;2023-02-05T01:30:12;3.80;99.90
7934;DHT22;4012;48.896;9.192;2023-02-05T01:32:38;3.80;99.90
7934;DHT22;4012;48.896;9.192;2023-02-05T01:35:05;3.80;99.90
7934;DHT22;4012;48.896;9.192;2023-02-05T01:37:31;3.90;99.90
7934;DHT22;4012;48.896;9.192;2023-02-05T01:39:56;4.00;99.90
7934;DHT22;4012;48.896;9.192;2023-02-05T01:42:27;4.00;99.90
7934;DHT22;4012;48.896;9.192;2023-02-05T01:47:48;3.80;99.90
7934;DHT22;4012;48.896;9.192;2023-02-05T01:50:58;3.70;99.90
7934;DHT22;4012;48.896;9.192;2023-02-05T01:53:08;3.60;99.90
7934;DHT22;4012;48.896;9.192;2023-02-05T01:56:38;3.60;99.90
7934;DHT22;4012;48.896;9.192;2023-02-05T01:59:06;3.60;99.90
7934;DHT22;4012;48.896;9.192;2023-02-05T02:01:33;3.60;99.90
7934;DHT22;4012;48.896;9.192;2023-02-05T02:04:00;3.50;99.90
7934;DHT22;4012;48.896;9.192;2023-02-05T02:06:32;3.70;99.90
7934;DHT22;4012;48.896;9.192;2023-02-05T02:08:59;3.60;99.90
7934;DHT22;4012;48.896;9.192;2023-02-05T02:11:27;3.50;99.90
7934;DHT22;4012;48.896;9.192;2023-02-05T02:13:55;3.40;99.90
7934;DHT22;4012;48.896;9.192;2023-02-05T02:16:24;3.40;99.90
7934;DHT22;4012;48.896;9.192;2023-02-05T02:18:50;3.40;99.90
7934;DHT22;4012;48.896;9.192;2023-02-05T02:21:40;3.30;99.90
7934;DHT22;4012;48.896;9.192;2023-02-05T02:24:33;3.40;99.90
7934;DHT22;4012;48.896;9.192;2023-02-05T02:27:26;3.40;99.90
7934;DHT22;4012;48.896;9.192;2023-02-05T02:30:03;3.40;99.90
7934;DHT22;4012;48.896;9.192;2023-02-05T02:32:48;3.40;99.90
7934;DHT22;4012;48.896;9.192;2023-02-05T02:38:50;3.50;99.90
7934;DHT22;4012;48.896;9.192;2023-02-05T02:44:02;3.60;99.90
7934;DHT22;4012;48.896;9.192;2023-02-05T02:46:37;3.60;99.90
7934;DHT22;4012;48.896;9.192;2023-02-05T02:49:08;3.60;99.90
7934;DHT22;4012;48.896;9.192;2023-02-05T02:51:38;3.60;99.90
7934;DHT22;4012;48.896;9.192;2023-02-05T02:54:09;3.60;99.90
7934;DHT22;4012;48.896;9.192;2023-02-05T02:56:38;3.60;99.90
7934;DHT22;4012;48.896;9.192;2023-02-05T02:59:16;3.70;99.90
7934;DHT22;4012;48.896;9.192;2023-02-05T03:01:45;3.70;99.90
7934;DHT22;4012;48.896;9.192;2023-02-05T03:04:20;3.60;99.90
7934;DHT22;4012;48.896;9.192;2023-02-05T03:06:49;3.50;99.90
7934;DHT22;4012;48.896;9.192;2023-02-05T03:09:45;3.50;99.90
7934;DHT22;4012;48.896;9.192;2023-02-05T03:12:14;3.50;99.90
7934;DHT22;4012;48.896;9.192;2023-02-05T03:14:40;3.30;99.90
7934;DHT22;4012;48.896;9.192;2023-02-05T03:17:06;3.30;99.90
7934;DHT22;4012;48.896;9.192;2023-02-05T03:19:32;3.30;99.90
7934;DHT22;4012;48.896;9.192;2023-02-05T03:22:03;3.40;99.90
7934;DHT22;4012;48.896;9.192;2023-02-05T03:24:32;3.40;99.90
7934;DHT22;4012;48.896;9.192;2023-02-05T03:26:58;3.40;99.90
7934;DHT22;4012;48.896;9.192;2023-02-05T03:29:30;3.60;99.90
7934;DHT22;4012;48.896;9.192;2023-02-05T03:40:18;3.60;99.90
7934;DHT22;4012;48.896;9.192;2023-02-05T03:42:59;3.60;99.90
7934;DHT22;4012;48.896;9.192;2023-02-05T03:51:01;3.40;99.90
7934;DHT22;4012;48.896;9.192;2023-02-05T03:53:36;3.40;99.90
7934;DHT22;4012;48.896;9.192;2023-02-05T03:56:12;3.30;99.90
7934;DHT22;4012;48.896;9.192;2023-02-05T03:58:42;3.30;99.90
7934;DHT22;4012;48.896;9.192;2023-02-05T04:01:11;3.20;99.90
7934;DHT22;4012;48.896;9.192;2023-02-05T04:03:37;3.20;99.90
7934;DHT22;4012;48.896;9.192;2023-02-05T04:06:04;3.10;99.90
7934;DHT22;4012;48.896;9.192;2023-02-05T04:08:29;3.10;99.90
7934;DHT22;4012;48.896;9.192;2023-02-05T04:10:55;3.20;99.90
7934;DHT22;4012;48.896;9.192;2023-02-05T04:13:21;3.20;99.90
7934;DHT22;4012;48.896;9.192;2023-02-05T04:15:48;3.10;99.90
7934;DHT22;4012;48.896;9.192;2023-02-05T04:18:14;3.00;99.90
7934;DHT22;4012;48.896;9.192;2023-02-05T04:20:39;3.00;99.90
7934;DHT22;4012;48.896;9.192;2023-02-05T04:23:05;3.00;99.90
7934;DHT22;4012;48.896;9.192;2023-02-05T04:25:31;3.00;99.90
7934;DHT22;4012;48.896;9.192;2023-02-05T04:27:56;3.00;99.90
7934;DHT22;4012;48.896;9.192;2023-02-05T04:30:22;3.00;99.90
7934;DHT22;4012;48.896;9.192;2023-02-05T04:32:47;3.00;99.90
7934;DHT22;4012;48.896;9.192;2023-02-05T04:35:13;3.00;99.90
7934;DHT22;4012;48.896;9.192;2023-02-05T04:37:38;2.90;99.90
7934;DHT22;4012;48.896;9.192;2023-02-05T04:40:05;2.90;99.90
7934;DHT22;4012;48.896;9.192;2023-02-05T04:42:30;2.90;99.90
7934;DHT22;4012;48.896;9.192;2023-02-05T04:44:56;2.80;99.90
7934;DHT22;4012;48.896;9.192;2023-02-05T04:47:22;2.80;99.90
7934;DHT22;4012;48.896;9.192;2023-02-05T04:49:47;2.80;99.90
7934;DHT22;4012;48.896;9.192;2023-02-05T04:52:13;2.80;99.90
7934;DHT22;4012;48.896;9.192;2023-02-05T04:54:38;2.80;99.90
7934;DHT22;4012;48.896;9.192;2023-02-05T04:57:04;2.70;99.90
7934;DHT22;4012;48.896;9.192;2023-02-05T04:59:29;2.80;99.90
7934;DHT22;4012;48.896;9.192;2023-02-05T05:01:57;2.80;99.90
7934;DHT22;4012;48.896;9.192;2023-02-05T05:04:23;2.80;99.90
7934;DHT22;4012;48.896;9.192;2023-02-05T05:06:48;2.70;99.90
7934;DHT22;4012;48.896;9.192;2023-02-05T05:09:14;2.70;99.90
7934;DHT22;4012;48.896;9.192;2023-02-05T05:11:39;2.80;99.90
7934;DHT22;4012;48.896;9.192;2023-02-05T05:14:05;2.90;99.90
7934;DHT22;4012;48.896;9.192;2023-02-05T05:16:31;3.00;99.90
7934;DHT22;4012;48.896;9.192;2023-02-05T05:18:56;3.00;99.90
7934;DHT22;4012;48.896;9.192;2023-02-05T05:21:22;2.90;99.90
7934;DHT22;4012;48.896;9.192;2023-02-05T05:23:47;2.90;99.90
7934;DHT22;4012;48.896;9.192;2023-02-05T05:26:13;2.90;99.90
7934;DHT22;4012;48.896;9.192;2023-02-05T05:28:39;3.00;99.90
7934;DHT22;4012;48.896;9.192;2023-02-05T05:31:09;3.00;99.90
7934;DHT22;4012;48.896;9.192;2023-02-05T05:33:35;3.00;99.90
7934;DHT22;4012;48.896;9.192;2023-02-05T05:36:01;3.00;99.90
7934;DHT22;4012;48.896;9.192;2023-02-05T05:38:27;3.00;99.90
7934;DHT22;4012;48.896;9.192;2023-02-05T05:40:53;3.10;99.90
7934;DHT22;4012;48.896;9.192;2023-02-05T05:43:37;3.00;99.90
7934;DHT22;4012;48.896;9.192;2023-02-05T05:46:13;3.00;99.90
7934;DHT22;4012;48.896;9.192;2023-02-05T05:48:40;3.20;99.90
7934;DHT22;4012;48.896;9.192;2023-02-05T05:51:05;3.30;99.90
7934;DHT22;4012;48.896;9.192;2023-02-05T05:53:31;3.30;99.90
7934;DHT22;4012;48.896;9.192;2023-02-05T05:55:57;3.30;99.90
7934;DHT22;4012;48.896;9.192;2023-02-05T05:58:23;3.20;99.90
7934;DHT22;4012;48.896;9.192;2023-02-05T06:00:49;3.20;99.90
7934;DHT22;4012;48.896;9.192;2023-02-05T06:03:15;3.20;99.90
7934;DHT22;4012;48.896;9.192;2023-02-05T06:05:40;3.30;99.90
7934;DHT22;4012;48.896;9.192;2023-02-05T06:08:06;3.30;99.90
7934;DHT22;4012;48.896;9.192;2023-02-05T06:10:32;3.30;99.90
7934;DHT22;4012;48.896;9.192;2023-02-05T06:12:58;3.20;99.90
7934;DHT22;4012;48.896;9.192;2023-02-05T06:15:23;3.20;99.90
7934;DHT22;4012;48.896;9.192;2023-02-05T06:17:51;3.10;99.90
7934;DHT22;4012;48.896;9.192;2023-02-05T06:20:17;3.10;99.90
7934;DHT22;4012;48.896;9.192;2023-02-05T06:22:42;2.90;99.90
7934;DHT22;4012;48.896;9.192;2023-02-05T06:25:08;2.90;99.90
7934;DHT22;4012;48.896;9.192;2023-02-05T06:27:33;2.80;99.90
7934;DHT22;4012;48.896;9.192;2023-02-05T06:29:59;2.90;99.90
7934;DHT22;4012;48.896;9.192;2023-02-05T06:32:25;2.90;99.90
7934;DHT22;4012;48.896;9.192;2023-02-05T06:34:50;2.90;99.90
7934;DHT22;4012;48.896;9.192;2023-02-05T06:37:16;2.90;99.90
7934;DHT22;4012;48.896;9.192;2023-02-05T06:39:42;2.90;99.90
7934;DHT22;4012;48.896;9.192;2023-02-05T06:42:07;2.90;99.90
7934;DHT22;4012;48.896;9.192;2023-02-05T06:44:33;2.90;99.90
7934;DHT22;4012;48.896;9.192;2023-02-05T06:46:59;2.90;99.90
7934;DHT22;4012;48.896;9.192;2023-02-05T06:49:25;2.90;99.90
7934;DHT22;4012;48.896;9.192;2023-02-05T06:51:50;3.00;99.90
7934;DHT22;4012;48.896;9.192;2023-02-05T06:54:16;3.00;99.90
7934;DHT22;4012;48.896;9.192;2023-02-05T06:56:41;2.90;99.90
7934;DHT22;4012;48.896;9.192;2023-02-05T06:59:07;3.00;99.90
7934;DHT22;4012;48.896;9.192;2023-02-05T07:01:33;3.00;99.90
7934;DHT22;4012;48.896;9.192;2023-02-05T07:03:58;3.00;99.90
7934;DHT22;4012;48.896;9.192;2023-02-05T07:06:25;3.10;99.90
7934;DHT22;4012;48.896;9.192;2023-02-05T07:08:51;3.10;99.90
7934;DHT22;4012;48.896;9.192;2023-02-05T07:11:17;3.20;99.90
7934;DHT22;4012;48.896;9.192;2023-02-05T07:13:43;3.20;99.90
7934;DHT22;4012;48.896;9.192;2023-02-05T07:16:08;3.20;99.90
7934;DHT22;4012;48.896;9.192;2023-02-05T07:18:34;3.20;99.90
7934;DHT22;4012;48.896;9.192;2023-02-05T07:21:04;3.30;99.90
7934;DHT22;4012;48.896;9.192;2023-02-05T07:23:30;3.30;99.90
7934;DHT22;4012;48.896;9.192;2023-02-05T07:25:55;3.40;99.90
7934;DHT22;4012;48.896;9.192;2023-02-05T07:28:21;3.40;99.90
7934;DHT22;4012;48.896;9.192;2023-02-05T07:30:47;3.50;99.90
7934;DHT22;4012;48.896;9.192;2023-02-05T07:33:14;3.40;99.90
7934;DHT22;4012;48.896;9.192;2023-02-05T07:35:40;3.40;99.90
7934;DHT22;4012;48.896;9.192;2023-02-05T07:38:05;3.20;99.90
7934;DHT22;4012;48.896;9.192;2023-02-05T07:40:31;3.30;99.90
7934;DHT22;4012;48.896;9.192;2023-02-05T07:42:57;3.30;99.90
7934;DHT22;4012;48.896;9.192;2023-02-05T07:45:22;3.30;99.90
7934;DHT22;4012;48.896;9.192;2023-02-05T07:47:48;3.40;99.90
7934;DHT22;4012;48.896;9.192;2023-02-05T07:50:18;3.40;99.90
7934;DHT22;4012;48.896;9.192;2023-02-05T07:52:43;3.40;99.90
7934;DHT22;4012;48.896;9.192;2023-02-05T07:55:09;3.40;99.90
7934;DHT22;4012;48.896;9.192;2023-02-05T07:57:34;3.40;99.90
7934;DHT22;4012;48.896;9.192;2023-02-05T08:00:00;3.50;99.90
7934;DHT22;4012;48.896;9.192;2023-02-05T08:02:26;3.50;99.90
7934;DHT22;4012;48.896;9.192;2023-02-05T08:04:51;3.40;99.90
7934;DHT22;4012;48.896;9.192;2023-02-05T08:07:17;3.40;99.90
7934;DHT22;4012;48.896;9.192;2023-02-05T08:09:42;3.40;99.90
7934;DHT22;4012;48.896;9.192;2023-02-05T08:12:08;3.40;99.90
7934;DHT22;4012;48.896;9.192;2023-02-05T08:14:34;3.50;99.90
7934;DHT22;4012;48.896;9.192;2023-02-05T08:17:00;3.50;99.90
7934;DHT22;4012;48.896;9.192;2023-02-05T08:19:26;3.60;99.90
7934;DHT22;4012;48.896;9.192;2023-02-05T08:21:51;3.60;99.90
7934;DHT22;4012;48.896;9.192;2023-02-05T08:24:17;3.70;99.90
7934;DHT22;4012;48.896;9.192;2023-02-05T08:26:43;3.60;99.90
7934;DHT22;4012;48.896;9.192;2023-02-05T08:29:10;3.60;99.90
7934;DHT22;4012;48.896;9.192;2023-02-05T08:31:35;3.70;99.90
7934;DHT22;4012;48.896;9.192;2023-02-05T08:34:02;3.80;99.90
7934;DHT22;4012;48.896;9.192;2023-02-05T08:36:27;4.00;99.90
7934;DHT22;4012;48.896;9.192;2023-02-05T08:38:53;4.00;99.90
7934;DHT22;4012;48.896;9.192;2023-02-05T08:41:19;4.10;99.90
7934;DHT22;4012;48.896;9.192;2023-02-05T08:43:47;4.10;99.90
7934;DHT22;4012;48.896;9.192;2023-02-05T08:46:16;4.10;99.90
7934;DHT22;4012;48.896;9.192;2023-02-05T08:48:43;4.20;99.90
7934;DHT22;4012;48.896;9.192;2023-02-05T08:51:10;4.10;99.90
7934;DHT22;4012;48.896;9.192;2023-02-05T08:53:36;4.10;99.90
7934;DHT22;4012;48.896;9.192;2023-02-05T08:56:03;4.10;99.90
7934;DHT22;4012;48.896;9.192;2023-02-05T08:58:30;4.00;99.90
7934;DHT22;4012;48.896;9.192;2023-02-05T09:01:02;4.00;99.90
7934;DHT22;4012;48.896;9.192;2023-02-05T09:03:29;4.10;99.90
7934;DHT22;4012;48.896;9.192;2023-02-05T09:05:55;4.20;99.90
7934;DHT22;4012;48.896;9.192;2023-02-05T09:08:22;4.30;99.90
7934;DHT22;4012;48.896;9.192;2023-02-05T09:10:47;4.30;99.90
7934;DHT22;4012;48.896;9.192;2023-02-05T09:13:13;4.20;99.90
7934;DHT22;4012;48.896;9.192;2023-02-05T09:15:43;4.20;99.90
7934;DHT22;4012;48.896;9.192;2023-02-05T09:18:09;4.20;99.90
7934;DHT22;4012;48.896;9.192;2023-02-05T09:20:43;4.10;99.90
7934;DHT22;4012;48.896;9.192;2023-02-05T09:23:10;4.10;99.90
7934;DHT22;4012;48.896;9.192;2023-02-05T09:25:37;4.10;99.90
7934;DHT22;4012;48.896;9.192;2023-02-05T09:28:04;4.20;99.90
7934;DHT22;4012;48.896;9.192;2023-02-05T09:30:31;4.20;99.90
7934;DHT22;4012;48.896;9.192;2023-02-05T09:32:57;4.30;99.90
7934;DHT22;4012;48.896;9.192;2023-02-05T09:35:23;4.20;99.90
7934;DHT22;4012;48.896;9.192;2023-02-05T09:37:48;4.20;99.90
7934;DHT22;4012;48.896;9.192;2023-02-05T09:40:20;4.10;99.90
7934;DHT22;4012;48.896;9.192;2023-02-05T09:42:52;4.10;99.90
7934;DHT22;4012;48.896;9.192;2023-02-05T09:50:47;4.00;99.90
7934;DHT22;4012;48.896;9.192;2023-02-05T09:53:17;4.00;99.90
7934;DHT22;4012;48.896;9.192;2023-02-05T09:55:45;3.90;99.90
7934;DHT22;4012;48.896;9.192;2023-02-05T09:58:15;4.00;99.90
7934;DHT22;4012;48.896;9.192;2023-02-05T10:00:45;4.10;99.90
7934;DHT22;4012;48.896;9.192;2023-02-05T10:14:19;4.20;99.90
7934;DHT22;4012;48.896;9.192;2023-02-05T10:17:11;4.20;99.90
7934;DHT22;4012;48.896;9.192;2023-02-05T10:22:25;4.20;99.90
7934;DHT22;4012;48.896;9.192;2023-02-05T10:25:01;4.30;99.90
7934;DHT22;4012;48.896;9.192;2023-02-05T10:27:39;4.40;99.90
7934;DHT22;4012;48.896;9.192;2023-02-05T10:35:42;4.50;99.90
7934;DHT22;4012;48.896;9.192;2023-02-05T10:38:24;4.50;99.90
7934;DHT22;4012;48.896;9.192;2023-02-05T10:40:54;4.60;99.90
7934;DHT22;4012;48.896;9.192;2023-02-05T10:43:44;4.50;99.90
7934;DHT22;4012;48.896;9.192;2023-02-05T10:46:12;4.50;99.90
7934;DHT22;4012;48.896;9.192;2023-02-05T10:51:15;4.50;99.90
7934;DHT22;4012;48.896;9.192;2023-02-05T10:53:42;4.30;99.90
7934;DHT22;4012;48.896;9.192;2023-02-05T10:56:15;4.40;99.90
7934;DHT22;4012;48.896;9.192;2023-02-05T10:58:54;4.50;99.90
7934;DHT22;4012;48.896;9.192;2023-02-05T11:01:29;4.50;99.90
7934;DHT22;4012;48.896;9.192;2023-02-05T11:06:29;4.60;99.90
7934;DHT22;4012;48.896;9.192;2023-02-05T11:08:56;4.60;99.90
7934;DHT22;4012;48.896;9.192;2023-02-05T11:11:24;4.70;99.90
7934;DHT22;4012;48.896;9.192;2023-02-05T11:14:03;4.70;99.90
7934;DHT22;4012;48.896;9.192;2023-02-05T11:16:37;4.80;99.90
7934;DHT22;4012;48.896;9.192;2023-02-05T11:19:03;4.80;99.90
7934;DHT22;4012;48.896;9.192;2023-02-05T11:21:53;4.90;99.90
7934;DHT22;4012;48.896;9.192;2023-02-05T11:29:53;4.90;99.90
7934;DHT22;4012;48.896;9.192;2023-02-05T11:32:37;4.90;99.90
7934;DHT22;4012;48.896;9.192;2023-02-05T11:40:31;5.00;99.90
7934;DHT22;4012;48.896;9.192;2023-02-05T11:45:53;5.10;99.90
7934;DHT22;4012;48.896;9.192;2023-02-05T11:48:39;5.10;99.90
7934;DHT22;4012;48.896;9.192;2023-02-05T11:51:08;5.10;99.90
7934;DHT22;4012;48.896;9.192;2023-02-05T11:53:34;5.30;99.90
7934;DHT22;4012;48.896;9.192;2023-02-05T11:56:08;5.40;99.90
7934;DHT22;4012;48.896;9.192;2023-02-05T11:58:35;5.50;99.90
7934;DHT22;4012;48.896;9.192;2023-02-05T12:01:04;5.40;99.90
7934;DHT22;4012;48.896;9.192;2023-02-05T12:03:32;5.40;99.90
7934;DHT22;4012;48.896;9.192;2023-02-05T12:08:47;5.40;99.90
7934;DHT22;4012;48.896;9.192;2023-02-05T12:14:39;5.20;99.90
7934;DHT22;4012;48.896;9.192;2023-02-05T12:20:11;5.10;99.90
7934;DHT22;4012;48.896;9.192;2023-02-05T12:22:51;5.20;99.90
7934;DHT22;4012;48.896;9.192;2023-02-05T12:28:44;4.90;99.90
7934;DHT22;4012;48.896;9.192;2023-02-05T12:42:39;5.20;99.90
7934;DHT22;4012;48.896;9.192;2023-02-05T12:50:52;5.20;99.90
7934;DHT22;4012;48.896;9.192;2023-02-05T12:56:20;5.30;99.90
7934;DHT22;4012;48.896;9.192;2023-02-05T12:59:01;5.30;99.90
7934;DHT22;4012;48.896;9.192;2023-02-05T13:01:57;5.20;99.90
7934;DHT22;4012;48.896;9.192;2023-02-05T13:06:59;5.30;99.90
7934;DHT22;4012;48.896;9.192;2023-02-05T13:09:52;5.20;99.90
7934;DHT22;4012;48.896;9.192;2023-02-05T13:12:22;5.30;99.90
7934;DHT22;4012;48.896;9.192;2023-02-05T13:15:04;5.30;99.90
7934;DHT22;4012;48.896;9.192;2023-02-05T13:17:36;5.30;99.90
7934;DHT22;4012;48.896;9.192;2023-02-05T13:20:07;5.30;99.90
7934;DHT22;4012;48.896;9.192;2023-02-05T13:22:53;5.10;99.90
7934;DHT22;4012;48.896;9.192;2023-02-05T13:25:43;5.10;99.90
7934;DHT22;4012;48.896;9.192;2023-02-05T13:28:45;5.20;99.90
7934;DHT22;4012;48.896;9.192;2023-02-05T13:31:29;5.20;99.90
7934;DHT22;4012;48.896;9.192;2023-02-05T13:34:01;5.20;99.90
7934;DHT22;4012;48.896;9.192;2023-02-05T13:39:36;5.00;99.90
7934;DHT22;4012;48.896;9.192;2023-02-05T13:54:09;4.90;99.90
7934;DHT22;4012;48.896;9.192;2023-02-05T13:59:44;4.90;99.90
7934;DHT22;4012;48.896;9.192;2023-02-05T14:04:56;4.80;99.90
7934;DHT22;4012;48.896;9.192;2023-02-05T14:07:37;4.80;99.90
7934;DHT22;4012;48.896;9.192;2023-02-05T14:10:40;4.80;99.90
7934;DHT22;4012;48.896;9.192;2023-02-05T14:15:50;4.90;99.90
7934;DHT22;4012;48.896;9.192;2023-02-05T14:23:57;4.70;99.90
7934;DHT22;4012;48.896;9.192;2023-02-05T14:26:51;4.80;99.90
7934;DHT22;4012;48.896;9.192;2023-02-05T14:29:37;4.70;99.90
7934;DHT22;4012;48.896;9.192;2023-02-05T14:32:04;4.70;99.90
7934;DHT22;4012;48.896;9.192;2023-02-05T14:36:58;4.70;99.90
7934;DHT22;4012;48.896;9.192;2023-02-05T14:39:27;4.70;99.90
7934;DHT22;4012;48.896;9.192;2023-02-05T14:42:02;4.70;99.90
7934;DHT22;4012;48.896;9.192;2023-02-05T14:47:16;4.70;99.90
7934;DHT22;4012;48.896;9.192;2023-02-05T14:49:45;4.70;99.90
7934;DHT22;4012;48.896;9.192;2023-02-05T14:57:47;4.60;99.90
7934;DHT22;4012;48.896;9.192;2023-02-05T15:08:28;4.50;99.90
7934;DHT22;4012;48.896;9.192;2023-02-05T15:19:39;4.60;99.90
7934;DHT22;4012;48.896;9.192;2023-02-05T15:22:12;4.50;99.90
7934;DHT22;4012;48.896;9.192;2023-02-05T15:24:44;4.50;99.90
7934;DHT22;4012;48.896;9.192;2023-02-05T15:27:35;4.50;99.90
7934;DHT22;4012;48.896;9.192;2023-02-05T15:30:03;4.50;99.90
7934;DHT22;4012;48.896;9.192;2023-02-05T15:32:34;4.40;99.90
7934;DHT22;4012;48.896;9.192;2023-02-05T15:35:05;4.30;99.90
7934;DHT22;4012;48.896;9.192;2023-02-05T15:37:37;4.30;99.90
7934;DHT22;4012;48.896;9.192;2023-02-05T15:40:20;4.30;99.90
7934;DHT22;4012;48.896;9.192;2023-02-05T15:42:51;4.30;99.90
7934;DHT22;4012;48.896;9.192;2023-02-05T15:45:27;4.30;99.90
7934;DHT22;4012;48.896;9.192;2023-02-05T15:48:01;4.30;99.90
7934;DHT22;4012;48.896;9.192;2023-02-05T15:50:28;4.20;99.90
7934;DHT22;4012;48.896;9.192;2023-02-05T15:52:54;4.20;99.90
7934;DHT22;4012;48.896;9.192;2023-02-05T15:55:21;4.20;99.90
7934;DHT22;4012;48.896;9.192;2023-02-05T15:57:49;4.20;99.90
7934;DHT22;4012;48.896;9.192;2023-02-05T16:00:24;4.30;99.90
7934;DHT22;4012;48.896;9.192;2023-02-05T16:02:55;4.20;99.90
7934;DHT22;4012;48.896;9.192;2023-02-05T16:05:23;4.20;99.90
7934;DHT22;4012;48.896;9.192;2023-02-05T16:07:50;4.20;99.90
7934;DHT22;4012;48.896;9.192;2023-02-05T16:10:30;4.30;99.90
7934;DHT22;4012;48.896;9.192;2023-02-05T16:12:58;4.30;99.90
7934;DHT22;4012;48.896;9.192;2023-02-05T16:15:38;4.20;99.90
7934;DHT22;4012;48.896;9.192;2023-02-05T16:18:10;4.30;99.90
7934;DHT22;4012;48.896;9.192;2023-02-05T16:20:41;4.30;99.90
7934;DHT22;4012;48.896;9.192;2023-02-05T16:25:56;4.20;99.90
7934;DHT22;4012;48.896;9.192;2023-02-05T16:28:47;4.20;99.90
7934;DHT22;4012;48.896;9.192;2023-02-05T16:31:18;4.30;99.90
7934;DHT22;4012;48.896;9.192;2023-02-05T16:33:55;4.30;99.90
7934;DHT22;4012;48.896;9.192;2023-02-05T16:36:35;4.30;99.90
7934;DHT22;4012;48.896;9.192;2023-02-05T16:39:13;4.40;99.90
7934;DHT22;4012;48.896;9.192;2023-02-05T16:41:42;4.40;99.90
7934;DHT22;4012;48.896;9.192;2023-02-05T16:44:25;4.40;99.90
7934;DHT22;4012;48.896;9.192;2023-02-05T16:49:37;4.50;99.90
7934;DHT22;4012;48.896;9.192;2023-02-05T16:52:12;4.50;99.90
7934;DHT22;4012;48.896;9.192;2023-02-05T16:54:49;4.60;99.90
7934;DHT22;4012;48.896;9.192;2023-02-05T16:57:23;4.50;99.90
7934;DHT22;4012;48.896;9.192;2023-02-05T16:59:53;4.50;99.90
7934;DHT22;4012;48.896;9.192;2023-02-05T17:04:54;4.40;99.90
7934;DHT22;4012;48.896;9.192;2023-02-05T17:07:21;4.40;99.90
7934;DHT22;4012;48.896;9.192;2023-02-05T17:09:48;4.40;99.90
7934;DHT22;4012;48.896;9.192;2023-02-05T17:15:24;4.40;99.90
7934;DHT22;4012;48.896;9.192;2023-02-05T17:17:55;4.40;99.90
7934;DHT22;4012;48.896;9.192;2023-02-05T17:20:24;4.30;99.90
7934;DHT22;4012;48.896;9.192;2023-02-05T17:26:07;4.30;99.90
7934;DHT22;4012;48.896;9.192;2023-02-05T17:28:21;4.30;99.90
7934;DHT22;4012;48.896;9.192;2023-02-05T17:30:49;4.40;99.90
7934;DHT22;4012;48.896;9.192;2023-02-05T17:33:20;4.30;99.90
7934;DHT22;4012;48.896;9.192;2023-02-05T17:35:46;4.40;99.90
7934;DHT22;4012;48.896;9.192;2023-02-05T17:38:13;4.30;99.90
7934;DHT22;4012;48.896;9.192;2023-02-05T17:40:38;4.40;99.90
7934;DHT22;4012;48.896;9.192;2023-02-05T17:43:04;4.30;99.90
7934;DHT22;4012;48.896;9.192;2023-02-05T17:45:35;4.30;99.90
7934;DHT22;4012;48.896;9.192;2023-02-05T17:48:01;4.30;99.90
7934;DHT22;4012;48.896;9.192;2023-02-05T17:50:27;4.20;99.90
7934;DHT22;4012;48.896;9.192;2023-02-05T17:52:52;4.20;99.90
7934;DHT22;4012;48.896;9.192;2023-02-05T17:55:20;4.30;99.90
7934;DHT22;4012;48.896;9.192;2023-02-05T17:57:46;4.30;99.90
7934;DHT22;4012;48.896;9.192;2023-02-05T18:00:14;4.20;99.90
7934;DHT22;4012;48.896;9.192;2023-02-05T18:02:40;4.20;99.90
7934;DHT22;4012;48.896;9.192;2023-02-05T18:05:06;4.20;99.90
7934;DHT22;4012;48.896;9.192;2023-02-05T18:07:53;4.20;99.90
7934;DHT22;4012;48.896;9.192;2023-02-05T18:10:26;4.20;99.90
7934;DHT22;4012;48.896;9.192;2023-02-05T18:12:53;4.20;99.90
7934;DHT22;4012;48.896;9.192;2023-02-05T18:15:21;4.10;99.90
7934;DHT22;4012;48.896;9.192;2023-02-05T18:17:46;4.10;99.90
7934;DHT22;4012;48.896;9.192;2023-02-05T18:20:14;4.10;99.90
7934;DHT22;4012;48.896;9.192;2023-02-05T18:22:40;4.10;99.90
7934;DHT22;4012;48.896;9.192;2023-02-05T18:25:06;4.10;99.90
7934;DHT22;4012;48.896;9.192;2023-02-05T18:27:32;4.10;99.90
7934;DHT22;4012;48.896;9.192;2023-02-05T18:29:58;4.10;99.90
7934;DHT22;4012;48.896;9.192;2023-02-05T18:32:24;4.10;99.90
7934;DHT22;4012;48.896;9.192;2023-02-05T18:34:49;4.10;99.90
7934;DHT22;4012;48.896;9.192;2023-02-05T18:37:16;4.10;99.90
7934;DHT22;4012;48.896;9.192;2023-02-05T18:39:42;4.10;99.90
7934;DHT22;4012;48.896;9.192;2023-02-05T18:42:08;4.10;99.90
7934;DHT22;4012;48.896;9.192;2023-02-05T18:44:34;4.10;99.90
7934;DHT22;4012;48.896;9.192;2023-02-05T18:46:59;4.10;99.90
7934;DHT22;4012;48.896;9.192;2023-02-05T18:49:26;4.00;99.90
7934;DHT22;4012;48.896;9.192;2023-02-05T18:51:52;4.00;99.90
7934;DHT22;4012;48.896;9.192;2023-02-05T18:54:17;4.00;99.90
7934;DHT22;4012;48.896;9.192;2023-02-05T18:56:43;4.00;99.90
7934;DHT22;4012;48.896;9.192;2023-02-05T18:59:12;3.90;99.90
7934;DHT22;4012;48.896;9.192;2023-02-05T19:01:39;3.90;99.90
7934;DHT22;4012;48.896;9.192;2023-02-05T19:04:06;3.80;99.90
7934;DHT22;4012;48.896;9.192;2023-02-05T19:06:33;3.80;99.90
7934;DHT22;4012;48.896;9.192;2023-02-05T19:08:59;3.80;99.90
7934;DHT22;4012;48.896;9.192;2023-02-05T19:11:26;3.80;99.90
7934;DHT22;4012;48.896;9.192;2023-02-05T19:13:58;3.70;99.90
7934;DHT22;4012;48.896;9.192;2023-02-05T19:16:25;3.70;99.90
7934;DHT22;4012;48.896;9.192;2023-02-05T19:18:51;3.60;99.90
7934;DHT22;4012;48.896;9.192;2023-02-05T19:21:21;3.70;99.90
7934;DHT22;4012;48.896;9.192;2023-02-05T19:23:52;3.60;99.90